sensor_id;sensor_type;location;lat;lon;timestamp;temperature;humidity
11848;DHT22;5983;49.966;8.052;2023-02-02T00:01:43;7.60;99.90
11848;DHT22;5983;49.966;8.052;2023-02-02T00:04:14;7.60;99.90
11848;DHT22;5983;49.966;8.052;2023-02-02T00:06:43;7.60;99.90
11848;DHT22;5983;49.966;8.052;2023-02-02T00:09:13;7.70;99.90
11848;DHT22;5983;49.966;8.052;2023-02-02T00:11:41;7.60;99.90
11848;DHT22;5983;49.966;8.052;2023-02-02T00:14:10;7.70;99.90
11848;DHT22;5983;49.966;8.052;2023-02-02T00:16:46;7.70;99.90
11848;DHT22;5983;49.966;8.052;2023-02-02T00:19:16;7.70;99.90
11848;DHT22;5983;49.966;8.052;2023-02-02T00:21:44;7.70;99.90
11848;DHT22;5983;49.966;8.052;2023-02-02T00:24:13;7.70;99.90
11848;DHT22;5983;49.966;8.052;2023-02-02T00:26:44;7.60;99.90
11848;DHT22;5983;49.966;8.052;2023-02-02T00:29:15;7.60;99.90
11848;DHT22;5983;49.966;8.052;2023-02-02T00:31:44;7.70;99.90
11848;DHT22;5983;49.966;8.052;2023-02-02T00:34:12;7.70;99.90
11848;DHT22;5983;49.966;8.052;2023-02-02T00:36:40;7.70;99.90
11848;DHT22;5983;49.966;8.052;2023-02-02T00:39:08;7.60;99.90
11848;DHT22;5983;49.966;8.052;2023-02-02T00:41:36;7.60;99.90
11848;DHT22;5983;49.966;8.052;2023-02-02T00:44:03;7.60;99.90
11848;DHT22;5983;49.966;8.052;2023-02-02T00:46:49;7.60;99.90
11848;DHT22;5983;49.966;8.052;2023-02-02T00:49:16;7.50;99.90
11848;DHT22;5983;49.966;8.052;2023-02-02T00:51:43;7.50;99.90
11848;DHT22;5983;49.966;8.052;2023-02-02T00:54:10;7.50;99.90
11848;DHT22;5983;49.966;8.052;2023-02-02T00:56:38;7.50;99.90
11848;DHT22;5983;49.966;8.052;2023-02-02T00:59:05;7.50;99.90
11848;DHT22;5983;49.966;8.052;2023-02-02T01:01:32;7.40;99.90
11848;DHT22;5983;49.966;8.052;2023-02-02T01:04:01;7.40;99.90
11848;DHT22;5983;49.966;8.052;2023-02-02T01:06:28;7.40;99.90
11848;DHT22;5983;49.966;8.052;2023-02-02T01:08:55;7.40;99.90
11848;DHT22;5983;49.966;8.052;2023-02-02T01:11:22;7.40;99.90
11848;DHT22;5983;49.966;8.052;2023-02-02T01:13:49;7.50;99.90
11848;DHT22;5983;49.966;8.052;2023-02-02T01:16:17;7.40;99.90
11848;DHT22;5983;49.966;8.052;2023-02-02T01:18:47;7.40;99.90
11848;DHT22;5983;49.966;8.052;2023-02-02T01:21:15;7.40;99.90
11848;DHT22;5983;49.966;8.052;2023-02-02T01:23:42;7.40;99.90
11848;DHT22;5983;49.966;8.052;2023-02-02T01:26:10;7.40;99.90
11848;DHT22;5983;49.966;8.052;2023-02-02T01:28:39;7.40;99.90
11848;DHT22;5983;49.966;8.052;2023-02-02T01:31:09;7.40;99.90
11848;DHT22;5983;49.966;8.052;2023-02-02T01:33:38;7.40;99.90
11848;DHT22;5983;49.966;8.052;2023-02-02T01:36:06;7.40;99.90
11848;DHT22;5983;49.966;8.052;2023-02-02T01:38:37;7.40;99.90
11848;DHT22;5983;49.966;8.052;2023-02-02T01:41:05;7.40;99.90
11848;DHT22;5983;49.966;8.052;2023-02-02T01:43:51;7.40;99.90
11848;DHT22;5983;49.966;8.052;2023-02-02T01:46:22;7.40;99.90
11848;DHT22;5983;49.966;8.052;2023-02-02T01:48:53;7.50;99.90
11848;DHT22;5983;49.966;8.052;2023-02-02T01:51:26;7.40;99.90
11848;DHT22;5983;49.966;8.052;2023-02-02T01:53:58;7.50;99.90
11848;DHT22;5983;49.966;8.052;2023-02-02T01:56:31;7.50;99.90
11848;DHT22;5983;49.966;8.052;2023-02-02T01:59:01;7.50;99.90
11848;DHT22;5983;49.966;8.052;2023-02-02T02:01:29;7.50;99.90
11848;DHT22;5983;49.966;8.052;2023-02-02T02:03:56;7.50;99.90
11848;DHT22;5983;49.966;8.052;2023-02-02T02:06:24;7.60;99.90
11848;DHT22;5983;49.966;8.052;2023-02-02T02:08:54;7.60;99.90
11848;DHT22;5983;49.966;8.052;2023-02-02T02:11:24;7.50;99.90
11848;DHT22;5983;49.966;8.052;2023-02-02T02:13:53;7.50;99.90
11848;DHT22;5983;49.966;8.052;2023-02-02T02:16:51;7.50;99.90
11848;DHT22;5983;49.966;8.052;2023-02-02T02:19:51;7.60;99.90
11848;DHT22;5983;49.966;8.052;2023-02-02T02:23:20;7.60;99.90
11848;DHT22;5983;49.966;8.052;2023-02-02T02:26:59;7.60;99.90
11848;DHT22;5983;49.966;8.052;2023-02-02T02:30:08;7.60;99.90
11848;DHT22;5983;49.966;8.052;2023-02-02T02:32:50;7.60;99.90
11848;DHT22;5983;49.966;8.052;2023-02-02T02:35:30;7.60;99.90
11848;DHT22;5983;49.966;8.052;2023-02-02T02:38:08;7.60;99.90
11848;DHT22;5983;49.966;8.052;2023-02-02T02:40:41;7.60;99.90
11848;DHT22;5983;49.966;8.052;2023-02-02T02:43:17;7.60;99.90
11848;DHT22;5983;49.966;8.052;2023-02-02T02:45:48;7.60;99.90
11848;DHT22;5983;49.966;8.052;2023-02-02T02:48:17;7.60;99.90
11848;DHT22;5983;49.966;8.052;2023-02-02T02:50:44;7.60;99.90
11848;DHT22;5983;49.966;8.052;2023-02-02T02:53:13;7.60;99.90
11848;DHT22;5983;49.966;8.052;2023-02-02T02:55:47;7.60;99.90
11848;DHT22;5983;49.966;8.052;2023-02-02T02:58:23;7.60;99.90
11848;DHT22;5983;49.966;8.052;2023-02-02T03:01:06;7.60;99.90
11848;DHT22;5983;49.966;8.052;2023-02-02T03:03:49;7.60;99.90
11848;DHT22;5983;49.966;8.052;2023-02-02T03:06:30;7.60;99.90
11848;DHT22;5983;49.966;8.052;2023-02-02T03:09:06;7.60;99.90
11848;DHT22;5983;49.966;8.052;2023-02-02T03:11:36;7.60;99.90
11848;DHT22;5983;49.966;8.052;2023-02-02T03:14:03;7.60;99.90
11848;DHT22;5983;49.966;8.052;2023-02-02T03:16:34;7.60;99.90
11848;DHT22;5983;49.966;8.052;2023-02-02T03:19:04;7.60;99.90
11848;DHT22;5983;49.966;8.052;2023-02-02T03:21:32;7.60;99.90
11848;DHT22;5983;49.966;8.052;2023-02-02T03:24:00;7.70;99.90
11848;DHT22;5983;49.966;8.052;2023-02-02T03:26:27;7.60;99.90
11848;DHT22;5983;49.966;8.052;2023-02-02T03:28:55;7.60;99.90
11848;DHT22;5983;49.966;8.052;2023-02-02T03:31:23;7.60;99.90
11848;DHT22;5983;49.966;8.052;2023-02-02T03:33:52;7.60;99.90
11848;DHT22;5983;49.966;8.052;2023-02-02T03:36:21;7.60;99.90
11848;DHT22;5983;49.966;8.052;2023-02-02T03:38:48;7.60;99.90
11848;DHT22;5983;49.966;8.052;2023-02-02T03:41:15;7.70;99.90
11848;DHT22;5983;49.966;8.052;2023-02-02T03:43:42;7.60;99.90
11848;DHT22;5983;49.966;8.052;2023-02-02T03:46:09;7.60;99.90
11848;DHT22;5983;49.966;8.052;2023-02-02T03:48:37;7.60;99.90
11848;DHT22;5983;49.966;8.052;2023-02-02T03:51:05;7.60;99.90
11848;DHT22;5983;49.966;8.052;2023-02-02T03:53:34;7.70;99.90
11848;DHT22;5983;49.966;8.052;2023-02-02T03:56:01;7.60;99.90
11848;DHT22;5983;49.966;8.052;2023-02-02T03:58:29;7.60;99.90
11848;DHT22;5983;49.966;8.052;2023-02-02T04:01:01;7.60;99.90
11848;DHT22;5983;49.966;8.052;2023-02-02T04:03:28;7.60;99.90
11848;DHT22;5983;49.966;8.052;2023-02-02T04:05:56;7.60;99.90
11848;DHT22;5983;49.966;8.052;2023-02-02T04:08:33;7.60;99.90
11848;DHT22;5983;49.966;8.052;2023-02-02T04:11:00;7.60;99.90
11848;DHT22;5983;49.966;8.052;2023-02-02T04:13:28;7.60;99.90
11848;DHT22;5983;49.966;8.052;2023-02-02T04:15:56;7.60;99.90
11848;DHT22;5983;49.966;8.052;2023-02-02T04:18:24;7.60;99.90
11848;DHT22;5983;49.966;8.052;2023-02-02T04:20:55;7.70;99.90
11848;DHT22;5983;49.966;8.052;2023-02-02T04:23:23;7.70;99.90
11848;DHT22;5983;49.966;8.052;2023-02-02T04:25:52;7.70;99.90
11848;DHT22;5983;49.966;8.052;2023-02-02T04:28:20;7.70;99.90
11848;DHT22;5983;49.966;8.052;2023-02-02T04:30:48;7.60;99.90
11848;DHT22;5983;49.966;8.052;2023-02-02T04:33:15;7.60;99.90
11848;DHT22;5983;49.966;8.052;2023-02-02T04:35:42;7.60;99.90
11848;DHT22;5983;49.966;8.052;2023-02-02T04:38:09;7.70;99.90
11848;DHT22;5983;49.966;8.052;2023-02-02T04:40:37;7.60;99.90
11848;DHT22;5983;49.966;8.052;2023-02-02T04:43:06;7.60;99.90
11848;DHT22;5983;49.966;8.052;2023-02-02T04:45:33;7.60;99.90
11848;DHT22;5983;49.966;8.052;2023-02-02T04:48:00;7.60;99.90
11848;DHT22;5983;49.966;8.052;2023-02-02T04:50:27;7.60;99.90
11848;DHT22;5983;49.966;8.052;2023-02-02T04:52:54;7.60;99.90
11848;DHT22;5983;49.966;8.052;2023-02-02T04:55:22;7.60;99.90
11848;DHT22;5983;49.966;8.052;2023-02-02T04:57:49;7.70;99.90
11848;DHT22;5983;49.966;8.052;2023-02-02T05:00:17;7.70;99.90
11848;DHT22;5983;49.966;8.052;2023-02-02T05:02:44;7.60;99.90
11848;DHT22;5983;49.966;8.052;2023-02-02T05:05:12;7.60;99.90
11848;DHT22;5983;49.966;8.052;2023-02-02T05:07:39;7.70;99.90
11848;DHT22;5983;49.966;8.052;2023-02-02T05:10:07;7.70;99.90
11848;DHT22;5983;49.966;8.052;2023-02-02T05:12:35;7.70;99.90
11848;DHT22;5983;49.966;8.052;2023-02-02T05:15:03;7.70;99.90
11848;DHT22;5983;49.966;8.052;2023-02-02T05:17:32;7.70;99.90
11848;DHT22;5983;49.966;8.052;2023-02-02T05:19:59;7.70;99.90
11848;DHT22;5983;49.966;8.052;2023-02-02T05:22:26;7.70;99.90
11848;DHT22;5983;49.966;8.052;2023-02-02T05:24:53;7.70;99.90
11848;DHT22;5983;49.966;8.052;2023-02-02T05:27:20;7.70;99.90
11848;DHT22;5983;49.966;8.052;2023-02-02T05:29:47;7.70;99.90
11848;DHT22;5983;49.966;8.052;2023-02-02T05:32:14;7.70;99.90
11848;DHT22;5983;49.966;8.052;2023-02-02T05:34:42;7.70;99.90
11848;DHT22;5983;49.966;8.052;2023-02-02T05:37:09;7.70;99.90
11848;DHT22;5983;49.966;8.052;2023-02-02T05:39:36;7.80;99.90
11848;DHT22;5983;49.966;8.052;2023-02-02T05:42:03;7.70;99.90
11848;DHT22;5983;49.966;8.052;2023-02-02T05:44:30;7.80;99.90
11848;DHT22;5983;49.966;8.052;2023-02-02T05:46:57;7.80;99.90
11848;DHT22;5983;49.966;8.052;2023-02-02T05:49:24;7.80;99.90
11848;DHT22;5983;49.966;8.052;2023-02-02T05:51:54;7.80;99.90
11848;DHT22;5983;49.966;8.052;2023-02-02T05:54:23;7.80;99.90
11848;DHT22;5983;49.966;8.052;2023-02-02T05:56:53;7.80;99.90
11848;DHT22;5983;49.966;8.052;2023-02-02T05:59:21;7.80;99.90
11848;DHT22;5983;49.966;8.052;2023-02-02T06:01:48;7.80;99.90
11848;DHT22;5983;49.966;8.052;2023-02-02T06:04:15;7.80;99.90
11848;DHT22;5983;49.966;8.052;2023-02-02T06:06:42;7.80;99.90
11848;DHT22;5983;49.966;8.052;2023-02-02T06:09:11;7.80;99.90
11848;DHT22;5983;49.966;8.052;2023-02-02T06:11:38;7.80;99.90
11848;DHT22;5983;49.966;8.052;2023-02-02T06:14:05;7.80;99.90
11848;DHT22;5983;49.966;8.052;2023-02-02T06:16:32;7.80;99.90
11848;DHT22;5983;49.966;8.052;2023-02-02T06:18:59;7.80;99.90
11848;DHT22;5983;49.966;8.052;2023-02-02T06:21:26;7.80;99.90
11848;DHT22;5983;49.966;8.052;2023-02-02T06:23:55;7.80;99.90
11848;DHT22;5983;49.966;8.052;2023-02-02T06:26:24;7.80;99.90
11848;DHT22;5983;49.966;8.052;2023-02-02T06:28:52;7.80;99.90
11848;DHT22;5983;49.966;8.052;2023-02-02T06:31:20;7.80;99.90
11848;DHT22;5983;49.966;8.052;2023-02-02T06:33:52;7.80;99.90
11848;DHT22;5983;49.966;8.052;2023-02-02T06:36:20;7.80;99.90
11848;DHT22;5983;49.966;8.052;2023-02-02T06:38:49;7.80;99.90
11848;DHT22;5983;49.966;8.052;2023-02-02T06:41:17;7.80;99.90
11848;DHT22;5983;49.966;8.052;2023-02-02T06:43:46;7.80;99.90
11848;DHT22;5983;49.966;8.052;2023-02-02T06:46:13;7.80;99.90
11848;DHT22;5983;49.966;8.052;2023-02-02T06:48:41;7.80;99.90
11848;DHT22;5983;49.966;8.052;2023-02-02T06:51:08;7.80;99.90
11848;DHT22;5983;49.966;8.052;2023-02-02T06:53:35;7.90;99.90
11848;DHT22;5983;49.966;8.052;2023-02-02T06:56:04;7.90;99.90
11848;DHT22;5983;49.966;8.052;2023-02-02T06:58:33;7.90;99.90
11848;DHT22;5983;49.966;8.052;2023-02-02T07:01:02;7.90;99.90
11848;DHT22;5983;49.966;8.052;2023-02-02T07:03:31;7.90;99.90
11848;DHT22;5983;49.966;8.052;2023-02-02T07:05:58;7.90;99.90
11848;DHT22;5983;49.966;8.052;2023-02-02T07:08:35;7.90;99.90
11848;DHT22;5983;49.966;8.052;2023-02-02T07:11:02;7.90;99.90
11848;DHT22;5983;49.966;8.052;2023-02-02T07:13:29;8.00;99.90
11848;DHT22;5983;49.966;8.052;2023-02-02T07:15:56;8.00;99.90
11848;DHT22;5983;49.966;8.052;2023-02-02T07:18:24;8.00;99.90
11848;DHT22;5983;49.966;8.052;2023-02-02T07:20:51;8.00;99.90
11848;DHT22;5983;49.966;8.052;2023-02-02T07:23:17;8.00;99.90
11848;DHT22;5983;49.966;8.052;2023-02-02T07:25:44;8.00;99.90
11848;DHT22;5983;49.966;8.052;2023-02-02T07:28:12;8.00;99.90
11848;DHT22;5983;49.966;8.052;2023-02-02T07:30:39;8.00;99.90
11848;DHT22;5983;49.966;8.052;2023-02-02T07:33:06;8.00;99.90
11848;DHT22;5983;49.966;8.052;2023-02-02T07:35:34;8.00;99.90
11848;DHT22;5983;49.966;8.052;2023-02-02T07:38:01;8.10;99.90
11848;DHT22;5983;49.966;8.052;2023-02-02T07:40:28;8.00;99.90
11848;DHT22;5983;49.966;8.052;2023-02-02T07:42:55;8.10;99.90
11848;DHT22;5983;49.966;8.052;2023-02-02T07:45:24;8.10;99.90
11848;DHT22;5983;49.966;8.052;2023-02-02T07:47:54;8.10;99.90
11848;DHT22;5983;49.966;8.052;2023-02-02T07:50:22;8.10;99.90
11848;DHT22;5983;49.966;8.052;2023-02-02T07:52:51;8.10;99.90
11848;DHT22;5983;49.966;8.052;2023-02-02T07:55:18;8.10;99.90
11848;DHT22;5983;49.966;8.052;2023-02-02T07:57:45;8.10;99.90
11848;DHT22;5983;49.966;8.052;2023-02-02T08:00:13;8.10;99.90
11848;DHT22;5983;49.966;8.052;2023-02-02T08:02:40;8.10;99.90
11848;DHT22;5983;49.966;8.052;2023-02-02T08:05:07;8.10;99.90
11848;DHT22;5983;49.966;8.052;2023-02-02T08:07:34;8.20;99.90
11848;DHT22;5983;49.966;8.052;2023-02-02T08:10:03;8.30;99.90
11848;DHT22;5983;49.966;8.052;2023-02-02T08:12:31;8.30;99.90
11848;DHT22;5983;49.966;8.052;2023-02-02T08:14:57;8.40;99.90
11848;DHT22;5983;49.966;8.052;2023-02-02T08:17:24;8.40;99.90
11848;DHT22;5983;49.966;8.052;2023-02-02T08:19:51;8.30;99.90
11848;DHT22;5983;49.966;8.052;2023-02-02T08:22:18;8.40;99.90
11848;DHT22;5983;49.966;8.052;2023-02-02T08:24:45;8.40;99.90
11848;DHT22;5983;49.966;8.052;2023-02-02T08:27:15;8.60;99.90
11848;DHT22;5983;49.966;8.052;2023-02-02T08:29:42;8.90;99.90
11848;DHT22;5983;49.966;8.052;2023-02-02T08:32:10;9.40;99.90
11848;DHT22;5983;49.966;8.052;2023-02-02T08:34:37;9.90;99.90
11848;DHT22;5983;49.966;8.052;2023-02-02T08:37:05;10.20;99.90
11848;DHT22;5983;49.966;8.052;2023-02-02T08:39:32;10.20;99.90
11848;DHT22;5983;49.966;8.052;2023-02-02T08:41:58;10.00;99.90
11848;DHT22;5983;49.966;8.052;2023-02-02T08:44:27;9.80;99.90
11848;DHT22;5983;49.966;8.052;2023-02-02T08:46:54;9.70;99.90
11848;DHT22;5983;49.966;8.052;2023-02-02T08:49:21;9.60;99.90
11848;DHT22;5983;49.966;8.052;2023-02-02T08:51:47;9.50;99.90
11848;DHT22;5983;49.966;8.052;2023-02-02T08:54:14;9.40;99.90
11848;DHT22;5983;49.966;8.052;2023-02-02T08:56:41;9.30;99.90
11848;DHT22;5983;49.966;8.052;2023-02-02T08:59:08;9.20;99.90
11848;DHT22;5983;49.966;8.052;2023-02-02T09:01:36;9.20;99.90
11848;DHT22;5983;49.966;8.052;2023-02-02T09:04:05;9.10;99.90
11848;DHT22;5983;49.966;8.052;2023-02-02T09:06:35;9.10;99.90
11848;DHT22;5983;49.966;8.052;2023-02-02T09:09:04;9.10;99.90
11848;DHT22;5983;49.966;8.052;2023-02-02T09:11:33;9.10;99.90
11848;DHT22;5983;49.966;8.052;2023-02-02T09:14:01;9.00;99.90
11848;DHT22;5983;49.966;8.052;2023-02-02T09:16:31;9.00;99.90
11848;DHT22;5983;49.966;8.052;2023-02-02T09:19:00;9.00;99.90
11848;DHT22;5983;49.966;8.052;2023-02-02T09:21:27;9.00;99.90
11848;DHT22;5983;49.966;8.052;2023-02-02T09:23:54;9.00;99.90
11848;DHT22;5983;49.966;8.052;2023-02-02T09:26:23;9.10;99.90
11848;DHT22;5983;49.966;8.052;2023-02-02T09:28:53;9.20;99.90
11848;DHT22;5983;49.966;8.052;2023-02-02T09:31:22;9.20;99.90
11848;DHT22;5983;49.966;8.052;2023-02-02T09:33:50;9.20;99.90
11848;DHT22;5983;49.966;8.052;2023-02-02T09:36:20;9.20;99.90
11848;DHT22;5983;49.966;8.052;2023-02-02T09:38:48;9.20;99.90
11848;DHT22;5983;49.966;8.052;2023-02-02T09:41:58;9.20;99.90
11848;DHT22;5983;49.966;8.052;2023-02-02T09:44:47;9.20;99.90
11848;DHT22;5983;49.966;8.052;2023-02-02T09:47:26;9.10;99.90
11848;DHT22;5983;49.966;8.052;2023-02-02T09:50:02;9.00;99.90
11848;DHT22;5983;49.966;8.052;2023-02-02T09:52:39;9.00;99.90
11848;DHT22;5983;49.966;8.052;2023-02-02T09:55:13;9.00;99.90
11848;DHT22;5983;49.966;8.052;2023-02-02T09:57:49;9.00;99.90
11848;DHT22;5983;49.966;8.052;2023-02-02T10:00:29;9.00;99.90
11848;DHT22;5983;49.966;8.052;2023-02-02T10:03:03;8.90;99.90
11848;DHT22;5983;49.966;8.052;2023-02-02T10:05:43;9.00;99.90
11848;DHT22;5983;49.966;8.052;2023-02-02T10:08:22;9.00;99.90
11848;DHT22;5983;49.966;8.052;2023-02-02T10:10:54;9.00;99.90
11848;DHT22;5983;49.966;8.052;2023-02-02T10:13:26;9.00;99.90
11848;DHT22;5983;49.966;8.052;2023-02-02T10:16:01;9.00;99.90
11848;DHT22;5983;49.966;8.052;2023-02-02T10:18:39;9.00;99.90
11848;DHT22;5983;49.966;8.052;2023-02-02T10:21:12;9.00;99.90
11848;DHT22;5983;49.966;8.052;2023-02-02T10:23:46;9.10;99.90
11848;DHT22;5983;49.966;8.052;2023-02-02T10:26:16;9.10;99.90
11848;DHT22;5983;49.966;8.052;2023-02-02T10:28:57;9.20;99.90
11848;DHT22;5983;49.966;8.052;2023-02-02T10:31:45;9.30;99.90
11848;DHT22;5983;49.966;8.052;2023-02-02T10:34:24;9.30;99.90
11848;DHT22;5983;49.966;8.052;2023-02-02T10:37:09;9.40;99.90
11848;DHT22;5983;49.966;8.052;2023-02-02T10:40:01;9.40;99.90
11848;DHT22;5983;49.966;8.052;2023-02-02T10:42:44;9.50;99.90
11848;DHT22;5983;49.966;8.052;2023-02-02T10:45:36;9.50;99.90
11848;DHT22;5983;49.966;8.052;2023-02-02T10:48:12;9.60;99.90
11848;DHT22;5983;49.966;8.052;2023-02-02T10:50:44;9.70;99.90
11848;DHT22;5983;49.966;8.052;2023-02-02T10:53:15;9.70;99.90
11848;DHT22;5983;49.966;8.052;2023-02-02T10:55:49;9.80;99.90
11848;DHT22;5983;49.966;8.052;2023-02-02T10:58:25;9.80;99.90
11848;DHT22;5983;49.966;8.052;2023-02-02T11:00:56;9.70;99.90
11848;DHT22;5983;49.966;8.052;2023-02-02T11:03:27;9.70;99.90
11848;DHT22;5983;49.966;8.052;2023-02-02T11:05:58;9.70;99.90
11848;DHT22;5983;49.966;8.052;2023-02-02T11:08:47;9.70;99.90
11848;DHT22;5983;49.966;8.052;2023-02-02T11:11:24;9.70;99.90
11848;DHT22;5983;49.966;8.052;2023-02-02T11:13:56;9.70;99.90
11848;DHT22;5983;49.966;8.052;2023-02-02T11:16:27;9.70;99.90
11848;DHT22;5983;49.966;8.052;2023-02-02T11:18:56;9.70;99.90
11848;DHT22;5983;49.966;8.052;2023-02-02T11:21:25;9.70;99.90
11848;DHT22;5983;49.966;8.052;2023-02-02T11:23:55;9.70;99.90
11848;DHT22;5983;49.966;8.052;2023-02-02T11:26:40;9.70;99.90
11848;DHT22;5983;49.966;8.052;2023-02-02T11:29:13;9.80;99.90
11848;DHT22;5983;49.966;8.052;2023-02-02T11:31:45;9.80;99.90
11848;DHT22;5983;49.966;8.052;2023-02-02T11:34:17;9.80;99.90
11848;DHT22;5983;49.966;8.052;2023-02-02T11:37:01;9.70;99.90
11848;DHT22;5983;49.966;8.052;2023-02-02T11:39:36;9.70;99.90
11848;DHT22;5983;49.966;8.052;2023-02-02T11:42:06;9.70;99.90
11848;DHT22;5983;49.966;8.052;2023-02-02T11:44:39;9.70;99.90
11848;DHT22;5983;49.966;8.052;2023-02-02T11:47:19;9.80;99.90
11848;DHT22;5983;49.966;8.052;2023-02-02T11:49:50;9.80;99.90
11848;DHT22;5983;49.966;8.052;2023-02-02T11:52:20;9.90;99.90
11848;DHT22;5983;49.966;8.052;2023-02-02T11:54:50;9.90;99.90
11848;DHT22;5983;49.966;8.052;2023-02-02T11:57:23;9.90;99.90
11848;DHT22;5983;49.966;8.052;2023-02-02T12:00:04;9.90;99.90
11848;DHT22;5983;49.966;8.052;2023-02-02T12:02:33;9.90;99.90
11848;DHT22;5983;49.966;8.052;2023-02-02T12:05:31;9.90;99.90
11848;DHT22;5983;49.966;8.052;2023-02-02T12:08:00;9.90;99.90
11848;DHT22;5983;49.966;8.052;2023-02-02T12:10:36;9.80;99.90
11848;DHT22;5983;49.966;8.052;2023-02-02T12:13:15;9.80;99.90
11848;DHT22;5983;49.966;8.052;2023-02-02T12:15:56;9.70;99.90
11848;DHT22;5983;49.966;8.052;2023-02-02T12:18:42;9.70;99.90
11848;DHT22;5983;49.966;8.052;2023-02-02T12:21:23;9.70;99.90
11848;DHT22;5983;49.966;8.052;2023-02-02T12:24:12;9.70;99.90
11848;DHT22;5983;49.966;8.052;2023-02-02T12:26:56;9.70;99.90
11848;DHT22;5983;49.966;8.052;2023-02-02T12:29:48;9.70;99.90
11848;DHT22;5983;49.966;8.052;2023-02-02T12:32:44;9.70;99.90
11848;DHT22;5983;49.966;8.052;2023-02-02T12:35:55;9.70;99.90
11848;DHT22;5983;49.966;8.052;2023-02-02T12:38:46;9.70;99.90
11848;DHT22;5983;49.966;8.052;2023-02-02T12:41:38;9.70;99.90
11848;DHT22;5983;49.966;8.052;2023-02-02T12:44:51;9.80;99.90
11848;DHT22;5983;49.966;8.052;2023-02-02T12:47:39;9.80;99.90
11848;DHT22;5983;49.966;8.052;2023-02-02T12:50:24;9.80;99.90
11848;DHT22;5983;49.966;8.052;2023-02-02T12:53:16;9.80;99.90
11848;DHT22;5983;49.966;8.052;2023-02-02T12:55:59;9.90;99.90
11848;DHT22;5983;49.966;8.052;2023-02-02T12:58:39;9.90;99.90
11848;DHT22;5983;49.966;8.052;2023-02-02T13:01:22;10.00;99.90
11848;DHT22;5983;49.966;8.052;2023-02-02T13:04:16;10.00;99.90
11848;DHT22;5983;49.966;8.052;2023-02-02T13:07:15;10.00;99.90
11848;DHT22;5983;49.966;8.052;2023-02-02T13:09:59;10.00;99.90
11848;DHT22;5983;49.966;8.052;2023-02-02T13:12:35;10.00;99.90
11848;DHT22;5983;49.966;8.052;2023-02-02T13:15:08;10.00;99.90
11848;DHT22;5983;49.966;8.052;2023-02-02T13:17:46;10.00;99.90
11848;DHT22;5983;49.966;8.052;2023-02-02T13:20:25;9.90;99.90
11848;DHT22;5983;49.966;8.052;2023-02-02T13:22:59;9.90;99.90
11848;DHT22;5983;49.966;8.052;2023-02-02T13:25:36;9.90;99.90
11848;DHT22;5983;49.966;8.052;2023-02-02T13:28:16;9.90;99.90
11848;DHT22;5983;49.966;8.052;2023-02-02T13:30:56;9.90;99.90
11848;DHT22;5983;49.966;8.052;2023-02-02T13:33:32;9.90;99.90
11848;DHT22;5983;49.966;8.052;2023-02-02T13:36:07;9.90;99.90
11848;DHT22;5983;49.966;8.052;2023-02-02T13:38:39;9.90;99.90
11848;DHT22;5983;49.966;8.052;2023-02-02T13:41:08;9.90;99.90
11848;DHT22;5983;49.966;8.052;2023-02-02T13:43:46;9.90;99.90
11848;DHT22;5983;49.966;8.052;2023-02-02T13:46:28;9.90;99.90
11848;DHT22;5983;49.966;8.052;2023-02-02T13:49:05;9.90;99.90
11848;DHT22;5983;49.966;8.052;2023-02-02T13:51:48;9.90;99.90
11848;DHT22;5983;49.966;8.052;2023-02-02T13:54:48;9.90;99.90
11848;DHT22;5983;49.966;8.052;2023-02-02T13:57:50;9.90;99.90
11848;DHT22;5983;49.966;8.052;2023-02-02T14:00:34;9.90;99.90
11848;DHT22;5983;49.966;8.052;2023-02-02T14:03:05;9.90;99.90
11848;DHT22;5983;49.966;8.052;2023-02-02T14:06:02;9.90;99.90
11848;DHT22;5983;49.966;8.052;2023-02-02T14:08:31;9.90;99.90
11848;DHT22;5983;49.966;8.052;2023-02-02T14:11:00;9.90;99.90
11848;DHT22;5983;49.966;8.052;2023-02-02T14:13:36;9.90;99.90
11848;DHT22;5983;49.966;8.052;2023-02-02T14:16:47;9.80;99.90
11848;DHT22;5983;49.966;8.052;2023-02-02T14:19:45;9.80;99.90
11848;DHT22;5983;49.966;8.052;2023-02-02T14:22:43;9.80;99.90
11848;DHT22;5983;49.966;8.052;2023-02-02T14:25:46;9.80;99.90
11848;DHT22;5983;49.966;8.052;2023-02-02T14:28:44;9.80;99.90
11848;DHT22;5983;49.966;8.052;2023-02-02T14:31:26;9.80;99.90
11848;DHT22;5983;49.966;8.052;2023-02-02T14:34:25;9.80;99.90
11848;DHT22;5983;49.966;8.052;2023-02-02T14:37:27;9.80;99.90
11848;DHT22;5983;49.966;8.052;2023-02-02T14:40:25;9.90;99.90
11848;DHT22;5983;49.966;8.052;2023-02-02T14:43:05;9.90;99.90
11848;DHT22;5983;49.966;8.052;2023-02-02T14:46:23;9.90;99.90
11848;DHT22;5983;49.966;8.052;2023-02-02T14:49:08;9.90;99.90
11848;DHT22;5983;49.966;8.052;2023-02-02T14:51:48;9.90;99.90
11848;DHT22;5983;49.966;8.052;2023-02-02T14:54:24;9.90;99.90
11848;DHT22;5983;49.966;8.052;2023-02-02T14:56:59;9.80;99.90
11848;DHT22;5983;49.966;8.052;2023-02-02T14:59:33;9.80;99.90
11848;DHT22;5983;49.966;8.052;2023-02-02T15:02:13;9.80;99.90
11848;DHT22;5983;49.966;8.052;2023-02-02T15:04:43;9.80;99.90
11848;DHT22;5983;49.966;8.052;2023-02-02T15:07:36;9.80;99.90
11848;DHT22;5983;49.966;8.052;2023-02-02T15:10:56;9.70;99.90
11848;DHT22;5983;49.966;8.052;2023-02-02T15:13:26;9.70;99.90
11848;DHT22;5983;49.966;8.052;2023-02-02T15:16:05;9.70;99.90
11848;DHT22;5983;49.966;8.052;2023-02-02T15:18:42;9.60;99.90
11848;DHT22;5983;49.966;8.052;2023-02-02T15:21:15;9.60;99.90
11848;DHT22;5983;49.966;8.052;2023-02-02T15:23:46;9.60;99.90
11848;DHT22;5983;49.966;8.052;2023-02-02T15:26:19;9.60;99.90
11848;DHT22;5983;49.966;8.052;2023-02-02T15:28:53;9.60;99.90
11848;DHT22;5983;49.966;8.052;2023-02-02T15:31:27;9.50;99.90
11848;DHT22;5983;49.966;8.052;2023-02-02T15:34:02;9.50;99.90
11848;DHT22;5983;49.966;8.052;2023-02-02T15:36:38;9.50;99.90
11848;DHT22;5983;49.966;8.052;2023-02-02T15:39:09;9.50;99.90
11848;DHT22;5983;49.966;8.052;2023-02-02T15:41:44;9.50;99.90
11848;DHT22;5983;49.966;8.052;2023-02-02T15:44:19;9.50;99.90
11848;DHT22;5983;49.966;8.052;2023-02-02T15:46:47;9.50;99.90
11848;DHT22;5983;49.966;8.052;2023-02-02T15:49:27;9.50;99.90
11848;DHT22;5983;49.966;8.052;2023-02-02T15:51:59;9.50;99.90
11848;DHT22;5983;49.966;8.052;2023-02-02T15:54:30;9.40;99.90
11848;DHT22;5983;49.966;8.052;2023-02-02T15:57:01;9.40;99.90
11848;DHT22;5983;49.966;8.052;2023-02-02T15:59:37;9.40;99.90
11848;DHT22;5983;49.966;8.052;2023-02-02T16:02:18;9.40;99.90
11848;DHT22;5983;49.966;8.052;2023-02-02T16:04:48;9.40;99.90
11848;DHT22;5983;49.966;8.052;2023-02-02T16:07:18;9.40;99.90
11848;DHT22;5983;49.966;8.052;2023-02-02T16:09:50;9.40;99.90
11848;DHT22;5983;49.966;8.052;2023-02-02T16:12:20;9.40;99.90
11848;DHT22;5983;49.966;8.052;2023-02-02T16:14:50;9.30;99.90
11848;DHT22;5983;49.966;8.052;2023-02-02T16:17:19;9.30;99.90
11848;DHT22;5983;49.966;8.052;2023-02-02T16:19:49;9.30;99.90
11848;DHT22;5983;49.966;8.052;2023-02-02T16:22:22;9.30;99.90
11848;DHT22;5983;49.966;8.052;2023-02-02T16:24:52;9.30;99.90
11848;DHT22;5983;49.966;8.052;2023-02-02T16:27:24;9.30;99.90
11848;DHT22;5983;49.966;8.052;2023-02-02T16:29:54;9.20;99.90
11848;DHT22;5983;49.966;8.052;2023-02-02T16:32:27;9.20;99.90
11848;DHT22;5983;49.966;8.052;2023-02-02T16:34:56;9.20;99.90
11848;DHT22;5983;49.966;8.052;2023-02-02T16:37:25;9.20;99.90
11848;DHT22;5983;49.966;8.052;2023-02-02T16:39:54;9.10;99.90
11848;DHT22;5983;49.966;8.052;2023-02-02T16:42:25;9.10;99.90
11848;DHT22;5983;49.966;8.052;2023-02-02T16:44:54;9.10;99.90